• Join FlightAware (Why Join?)
  • Login
  • US Flag 
02:07PM EDT


 

Airport Tracker/Info


-or-


 

Live Flight TrackerFlight Track Log ✈ N675MC ✈ 17-Sep-2013 ✈ KSTL - KDTW

Flight Track Log - Related Links

Times and Time Zones

All times are in EDT time to prevent confusion due to time zone crossing. See the N675MC flight status page for this flight to view local times or setup timezone preferences in your user account.

Time Position Orientation Groundspeed Altitude Reporting Facility
EDT Latitude Longitude Course Direction KTS MPH feet Rate Location/Type
10:57AM 38.7333 -90.2667 90° East 209 241 3,300  Level Gateway (St. Louis) TRACON
10:57AM 38.7347 -90.2333 87° East 215 247 4,000 2,160 Climbing Kansas City Center
10:58AM 38.7456 -90.1183 83° East 250 288 7,000 3,000 Climbing Kansas City Center
10:59AM 39.0001 -89.9102 84° East  Level Estimated
10:59AM 38.7475 -90.0150 89° East 280 322 10,200  Level Kansas City Center
11:00AM 38.9558 -89.7816 114° Southeast  Level FlightAware Approximate
11:00AM 38.7592 -89.9025 82° East 310 357 11,800  Level Kansas City Center
11:01AM 39.0197 -89.6674 74° East  Level Estimated
11:01AM 38.7769 -89.7739 80° East 356 410 14,200  Level Kansas City Center
11:03AM 38.7875 -89.6250 85° East 375 432 16,800 2,280 Climbing Kansas City Center
11:04AM 38.8025 -89.4722 83° East 402 463 19,000 1,860 Climbing Kansas City Center
11:05AM 38.8219 -89.3286 80° East 409 471 20,700 1,620 Climbing Kansas City Center
11:06AM 38.8442 -89.1658 80° East 429 494 22,400 1,680 Climbing Kansas City Center
11:07AM 38.8656 -89.0114 80° East 439 505 24,200 1,440 Climbing Kansas City Center
11:08AM 38.8864 -88.8636 80° East 450 518 25,500 1,260 Climbing Kansas City Center
11:09AM 38.9056 -88.7000 81° East 462 532 26,900 1,140 Climbing Kansas City Center
11:10AM 38.9236 -88.5244 82° East 470 541 27,800 840 Climbing Kansas City Center
11:11AM 38.9564 -88.3542 76° East 483 556 28,700 540 Climbing Kansas City Center
11:12AM 39.0072 -88.1861 69° East 496 571 29,000 120 Climbing Kansas City Center
11:13AM 39.0431 -88.0539 71° East 503 579 29,000 600 Level Indianapolis Center
11:14AM 39.1053 -87.8503 68° East 505 581 30,100 1,200 Climbing Indianapolis Center
11:15AM 39.1575 -87.6839 68° East 501 577 31,600 1,320 Climbing Indianapolis Center
11:16AM 39.2097 -87.5253 67° East 493 567 32,900 660 Climbing Indianapolis Center
11:17AM 39.2619 -87.3639 67° East 489 563 33,000 60 Climbing Indianapolis Center
11:18AM 39.3136 -87.2017 68° East 491 565 33,100  Climbing Indianapolis Center
11:19AM 39.3683 -87.0422 66° East 489 563 33,000 -60 Descending Indianapolis Center
11:20AM 39.4636 -86.9206 45° Northeast 484 557 33,000  Level Indianapolis Center
11:21AM 39.5836 -86.7839 41° Northeast 479 551 33,000  Level Indianapolis Center
11:22AM 39.6819 -86.6661 43° Northeast 479 551 33,000  Level Indianapolis Center
11:23AM 39.7836 -86.5519 41° Northeast 479 551 33,000  Level Indianapolis Center
11:24AM 39.8869 -86.4344 41° Northeast 482 555 33,000  Level Indianapolis Center
11:25AM 39.9906 -86.3194 40° Northeast 482 555 33,000  Level Indianapolis Center
11:26AM 40.0914 -86.2058 41° Northeast 479 551 33,000 -600 Level Indianapolis Center
11:27AM 40.1911 -86.0892 42° Northeast 480 552 31,900 -1,140 Descending Chicago Center
11:28AM 40.2917 -85.9750 41° Northeast 478 550 30,700 -1,260 Descending Chicago Center
11:29AM 40.3950 -85.8589 41° Northeast 487 560 29,400 -1,380 Descending Chicago Center
11:30AM 40.5194 -85.7211 40° Northeast 488 562 27,900 -1,260 Descending Chicago Center
11:31AM 40.6239 -85.6119 38° Northeast 485 558 26,900 -1,020 Descending Chicago Center
11:32AM 40.7200 -85.5072 40° Northeast 482 555 25,800 -1,380 Descending Chicago Center
11:33AM 40.8139 -85.3933 43° Northeast 467 537 24,100 -1,320 Descending Chicago Center
11:34AM 40.9203 -85.2642 43° Northeast 440 506 23,100 -960 Descending Chicago Center
11:35AM 41.0086 -85.1594 42° Northeast 431 496 22,200 -1,440 Descending Chicago Center
11:36AM 41.0947 -85.0475 44° Northeast 435 501 20,200 -1,560 Descending Chicago Center
11:37AM 41.1861 -84.9575 37° Northeast 418 481 19,000 -600 Descending Chicago Center
11:38AM 41.2797 -84.8711 35° Northeast 413 475 19,000  Level Chicago Center
11:39AM 41.3956 -84.7636 35° Northeast 424 488 19,000  Level Chicago Center
11:40AM 41.4928 -84.6747 34° Northeast 426 490 19,000  Level Chicago Center
11:41AM 41.5842 -84.5767 39° Northeast 426 490 19,000  Level Chicago Center
11:42AM 41.6494 -84.4453 56° Northeast 433 498 19,000 -720 Level Chicago Center
11:44AM 41.7050 -84.3086 61° Northeast 422 486 17,500 -2,340 Descending Chicago Center
11:44AM 41.7419 -84.2203 61° Northeast 395 455 15,500 -3,240 Descending Cleveland Center
11:45AM 41.7744 -84.1469 59° Northeast 395 455 13,400 -2,760 Descending Cleveland Center
11:45AM 41.8103 -84.0822 53° Northeast 385 443 12,200 -1,260 Descending Cleveland Center
11:46AM 41.8458 -84.0053 58° Northeast 384 442 12,100 -120 Descending Cleveland Center
11:46AM 41.8753 -83.9575 50° Northeast 383 441 12,100  Level Cleveland Center
11:47AM 41.9175 -83.9028 44° Northeast 381 438 12,100  Level Cleveland Center
11:47AM 41.9572 -83.8544 42° Northeast 373 429 12,100  Level Cleveland Center
11:48AM 41.9917 -83.8081 45° Northeast 371 427 12,100  Level Cleveland Center
11:48AM 42.0272 -83.7692 39° Northeast 368 423 12,100  Level Cleveland Center
11:49AM 42.0683 -83.7172 43° Northeast 367 422 12,100  Level Cleveland Center
11:49AM 42.1017 -83.6789 40° Northeast 365 420 12,100  Level Cleveland Center
11:50AM 42.1433 -83.6267 43° Northeast 365 420 12,100  Level Cleveland Center
11:50AM 42.1761 -83.5883 41° Northeast 362 417 12,100 -600 Level Cleveland Center
11:51AM 42.2200 -83.5311 44° Northeast 353 406 11,500 -1,080 Descending Cleveland Center
11:51AM 42.2544 -83.4981 35° Northeast 301 346 10,900 -1,500 Descending Cleveland Center
11:52AM 42.2889 -83.4700 31° Northeast 310 357 10,000 -1,500 Descending Cleveland Center
11:52AM 42.3231 -83.4514 22° Northeast 265 305 9,400 -1,500 Descending Cleveland Center
11:53AM 42.3567 -83.4272 28° Northeast 272 313 8,500 -2,280 Descending Cleveland Center
11:53AM 42.3806 -83.4144 22° Northeast 239 275 7,400 -2,520 Descending Cleveland Center
11:54AM 42.4144 -83.3881 30° Northeast 236 272 5,900 -2,640 Descending Cleveland Center
11:54AM 42.4242 -83.3642 61° Northeast 241 277 5,000 -1,860 Descending Cleveland Center
11:55AM 42.4100 -83.3097 109° East 227 261 4,000 -1,320 Descending Cleveland Center
11:55AM 42.3961 -83.2950 142° Southeast 192 221 3,700 -540 Descending Cleveland Center
11:56AM 42.3633 -83.2892 173° South 192 221 3,500 -300 Descending Cleveland Center
11:56AM 42.3458 -83.2936 191° South 187 215 3,400 -900 Descending Cleveland Center
11:57AM 42.3111 -83.3025 191° South 190 219 2,600 -1,140 Descending Cleveland Center
11:57AM 42.2961 -83.3150 212° Southwest 173 199 2,300 -1,020 Descending Cleveland Center
11:58AM 42.2642 -83.3361 206° Southwest 163 188 1,600 -840 Descending Cleveland Center
11:58AM 42.2606 -83.3408 224° Southwest 142 163 1,500 -720 Descending Cleveland Center
11:59AM 42.2300 -83.3622 207° Southwest 147 169 900 -660 Descending Cleveland Center